Aérodrome :
LOGIN :

S'inscrire | Disclaimer

   EN    FR    IT 

 










Légende :    VFR   VFR Marginal   IFR   IFR Intensif   IFR Très Intensif
Visi : 
Plafond : 
>= 8 km
>= 3000ft
5 à 8 km
1000 à 3000 ft
1500m à 5 km
500 à 1000 ft
800 à 1500m
200 à 500 ft
< 800m
< 200 ft
Symboles :   Orages  Brouillard  Fortes neiges  Fortes précipitations  Vent > 20 kt
SIGMETs :   Divers  Orages  Givrage  Turbulence  Onde Orograph.  Cendres Volcan.







- Altitude de l'aérodrome : 359 ft
- Code IATA : BVA
- Voir les cartes d'approche


LFOB - Beauvais

DERNIER METAR :
  • 210230Z AUTO 31006KT 9000 NSC 07/05 Q1022 BECMG 04010KT

METARs EXPIRÉS :
  • 210200Z AUTO 30005KT 9000 NSC 08/06 Q1022 BECMG 04010KT
  • 210130Z AUTO 31006KT 9000 NSC 08/06 Q1022 BECMG 04010KT
  • 210100Z AUTO 29004KT CAVOK 09/06 Q1022 BECMG 04010KT
  • 210030Z AUTO VRB03KT CAVOK 11/06 Q1023 NOSIG
  • 210000Z AUTO VRB01KT CAVOK 13/06 Q1023 NOSIG

TAF TAF LFOB
Valide du 21 à 00h jusqu'au 22 à 00h UTC


202300Z 2100/2124 04010KT CAVOK
ATIS : +33 3 44 11 49 28
Pas de NOTAMs connus pour ce terrain.



MET'MAP, la Météo Aéronautique d'un coup d'oeil ! - Copyright ORBIFLY Décembre 2007 - Disclaimer

ORBIFLY MET'MAP TEAM :

Programmation & Développement : Alexandra Zaïnal
Conception & Développement : Baudouin d'Aumeries
Co-Programmation & Développement : Marc-Olivier Méhu
Soutien technique & logistique : Manuel Goepfert

Contact : metmap@orbifly.com




SOURCES & CREDITS :

   NOAA